Decoded Metar for KGGW (GLASGOW in MT, USA) (IATA:GGW) | Meteo·Mobile Aviation Weather
aviador You're here:

KGGW Decoded Metar

GLASGOW in MT, USA
Report Time2018-09-19 14:53:00
UTC Time2018-09-19 15:16:14
Flight Rules vfr VFR
Wind070° at 09 kt
W.Decomp.*RWY 08: 8.4 kt HW 3.2 kt LCW
RWY 12: 4.4 kt HW 7.9 kt LCW
W.Rank070° ranks 21
Current wind is below 070° avg. (9.3)
Visibility9999 m
Phenomena:Light Rain
Clouds:Scattered 020 Hf
Overcast 036 Hf
Expected CloudBase > 400 ft AGL from Temp-Dew spread
Ceiling3,600 ft
Temp07°C (ISA -3)
Dew Point06°C (93% RH)
AAT2.8°C
QNH1021 hPa
Density Alt1,726 ft
Elevation2,277 ft
Report Wrong Elevation
Raw Report
KGGW 191453Z AUTO 07009KT 10SM -RA SCT020 OVC036 07/06 A3016 RMK
AO2 SLP223 P0001 60004 T00720056 53013=

Extra information for KGGW:More info

Metar Taf Metar & Taf Last 4 Metars F.Rules Stats Wind Profile Meteogram Temp Stats Airport Information Weather charts Add Link Nearby VenuesMetar ALERT Operation Metar Decoded Social comments

AIRNAV info for KGGW